createdAt,value
2023-08-12T00:01:53.677Z,19.87
2023-08-12T00:04:24.360Z,19.88
2023-08-12T00:06:55.200Z,19.86
2023-08-12T00:09:26.210Z,19.83
2023-08-12T00:11:57.248Z,19.81
2023-08-12T00:14:27.949Z,19.80
2023-08-12T00:16:59.092Z,19.75
2023-08-12T00:19:29.728Z,19.69
2023-08-12T00:22:01.238Z,19.62
2023-08-12T00:24:31.869Z,19.55
2023-08-12T00:27:02.601Z,19.50
2023-08-12T00:29:33.252Z,19.46
2023-08-12T00:32:04.527Z,19.45
2023-08-12T00:34:35.629Z,19.47
2023-08-12T00:37:07.088Z,19.49
2023-08-12T00:39:37.798Z,19.54
2023-08-12T00:42:08.819Z,19.59
2023-08-12T00:44:39.559Z,19.62
2023-08-12T00:47:11.372Z,19.64
2023-08-12T00:49:44.953Z,19.66
2023-08-12T00:52:16.920Z,19.69
2023-08-12T00:54:48.550Z,19.70
2023-08-12T00:57:19.205Z,19.70
2023-08-12T00:59:51.372Z,19.70
2023-08-12T01:02:22.097Z,19.70
2023-08-12T01:04:52.721Z,19.68
2023-08-12T01:07:23.548Z,19.67
2023-08-12T01:09:54.810Z,19.68
2023-08-12T01:12:29.408Z,19.69
2023-08-12T01:15:09.533Z,19.63
2023-08-12T01:17:43.984Z,19.56
2023-08-12T01:20:16.250Z,19.51
2023-08-12T01:22:48.569Z,19.48
2023-08-12T01:25:19.471Z,19.48
2023-08-12T01:27:50.212Z,19.46
2023-08-12T01:30:23.909Z,19.44
2023-08-12T01:33:00.084Z,19.43
2023-08-12T01:35:37.492Z,19.42
2023-08-12T01:38:10.859Z,19.42
2023-08-12T01:40:43.785Z,19.41
2023-08-12T01:43:15.320Z,19.40
2023-08-12T01:45:46.633Z,19.40
2023-08-12T01:48:17.291Z,19.40
2023-08-12T01:50:49.024Z,19.42
2023-08-12T01:53:20.388Z,19.46
2023-08-12T01:55:52.644Z,19.51
2023-08-12T01:58:23.292Z,19.53
2023-08-12T02:00:53.866Z,19.56
2023-08-12T02:03:24.635Z,19.57
2023-08-12T02:05:55.647Z,19.58
2023-08-12T02:08:26.957Z,19.61
2023-08-12T02:10:57.615Z,19.64
2023-08-12T02:13:28.992Z,19.65
2023-08-12T02:15:59.837Z,19.66
2023-08-12T02:18:30.776Z,19.67
2023-08-12T02:21:01.871Z,19.67
2023-08-12T02:23:32.464Z,19.65
2023-08-12T02:26:03.972Z,19.62
2023-08-12T02:28:34.486Z,19.61
2023-08-12T02:31:05.225Z,19.62
2023-08-12T02:33:36.185Z,19.64
2023-08-12T02:36:08.064Z,19.65
2023-08-12T02:38:38.752Z,19.66
2023-08-12T02:41:09.452Z,19.66
2023-08-12T02:43:40.693Z,19.66
2023-08-12T02:46:11.374Z,19.66
2023-08-12T02:48:42.393Z,19.68
2023-08-12T02:51:13.020Z,19.69
2023-08-12T02:53:44.046Z,19.72
2023-08-12T02:56:15.027Z,19.73
2023-08-12T02:58:46.289Z,19.73
2023-08-12T03:01:17.230Z,19.74
2023-08-12T03:03:48.029Z,19.76
2023-08-12T03:06:18.824Z,19.80
2023-08-12T03:08:50.259Z,19.82
2023-08-12T03:11:20.810Z,19.80
2023-08-12T03:13:51.639Z,19.79
2023-08-12T03:16:23.229Z,19.81
2023-08-12T03:18:54.598Z,19.82
2023-08-12T03:21:25.257Z,19.85
2023-08-12T03:23:56.107Z,19.86
2023-08-12T03:26:27.342Z,19.88
2023-08-12T03:28:58.233Z,19.90
2023-08-12T03:31:28.933Z,19.90
2023-08-12T03:33:59.582Z,19.87
2023-08-12T03:36:30.229Z,19.84
2023-08-12T03:39:00.897Z,19.82
2023-08-12T03:41:32.172Z,19.84
2023-08-12T03:44:02.923Z,19.87
2023-08-12T03:46:34.133Z,19.90
2023-08-12T03:49:05.899Z,19.92
2023-08-12T03:51:37.222Z,19.93
2023-08-12T03:54:08.769Z,19.94
2023-08-12T03:56:39.671Z,19.93
2023-08-12T03:59:10.435Z,19.91
2023-08-12T04:01:41.936Z,19.87
2023-08-12T04:04:14.564Z,19.87
2023-08-12T04:06:45.494Z,19.91
2023-08-12T04:09:16.566Z,19.93
2023-08-12T04:11:47.477Z,19.95
2023-08-12T04:14:18.131Z,19.98
2023-08-12T04:16:49.317Z,20.02
2023-08-12T04:19:20.355Z,20.06
2023-08-12T04:21:51.849Z,20.08
2023-08-12T04:24:22.550Z,20.14
2023-08-12T04:26:53.161Z,20.15
2023-08-12T04:29:24.187Z,20.17
2023-08-12T04:31:54.765Z,20.20
2023-08-12T04:34:25.989Z,20.23
2023-08-12T04:36:57.154Z,20.27
2023-08-12T04:39:28.488Z,20.33
2023-08-12T04:41:59.541Z,20.39
2023-08-12T04:44:30.284Z,20.48
2023-08-12T04:47:01.280Z,20.57
2023-08-12T04:49:32.408Z,20.62
2023-08-12T04:52:03.573Z,20.65
2023-08-12T04:54:34.603Z,20.66
2023-08-12T04:57:06.811Z,20.67
2023-08-12T04:59:38.177Z,20.69
2023-08-12T05:02:09.034Z,20.69
2023-08-12T05:04:40.914Z,20.67
2023-08-12T05:07:11.816Z,20.63
2023-08-12T05:09:44.986Z,20.63
2023-08-12T05:12:16.615Z,20.63
2023-08-12T05:14:47.795Z,20.64
2023-08-12T05:17:18.964Z,20.67
2023-08-12T05:19:49.540Z,20.68
2023-08-12T05:22:20.675Z,20.69
2023-08-12T05:24:51.372Z,20.68
2023-08-12T05:27:22.389Z,20.66
2023-08-12T05:29:53.745Z,20.63
2023-08-12T05:32:24.639Z,20.61
2023-08-12T05:34:55.879Z,20.59
2023-08-12T05:37:26.426Z,20.57
2023-08-12T05:39:57.386Z,20.57
2023-08-12T05:42:28.494Z,20.56
2023-08-12T05:44:59.075Z,20.56
2023-08-12T05:47:29.951Z,20.57
2023-08-12T05:50:00.676Z,20.58
2023-08-12T05:52:31.879Z,20.62
2023-08-12T05:55:02.951Z,20.69
2023-08-12T05:57:33.507Z,20.78
2023-08-12T06:00:04.621Z,20.90
2023-08-12T06:02:35.424Z,21.02
2023-08-12T06:05:07.326Z,21.19
2023-08-12T06:07:38.359Z,21.34
2023-08-12T06:10:10.946Z,21.52
2023-08-12T06:12:41.637Z,21.65
2023-08-12T06:15:13.606Z,21.77
2023-08-12T06:17:44.425Z,21.91
2023-08-12T06:20:16.513Z,22.01
2023-08-12T06:22:47.470Z,22.07
2023-08-12T06:25:18.214Z,22.11
2023-08-12T06:27:49.142Z,22.16
2023-08-12T06:30:19.795Z,22.23
2023-08-12T06:32:50.678Z,22.27
2023-08-12T06:35:22.367Z,22.30
2023-08-12T06:37:53.545Z,22.32
2023-08-12T06:40:24.803Z,22.35
2023-08-12T06:42:55.890Z,22.37
2023-08-12T06:45:26.537Z,22.41
2023-08-12T06:47:57.178Z,22.47
2023-08-12T06:50:28.576Z,22.49
2023-08-12T06:52:59.302Z,22.47
2023-08-12T06:55:30.047Z,22.46
2023-08-12T06:58:00.789Z,22.44
2023-08-12T07:00:31.801Z,22.46
2023-08-12T07:03:02.334Z,22.51
2023-08-12T07:05:33.680Z,22.58
2023-08-12T07:08:04.552Z,22.65
2023-08-12T07:10:35.420Z,22.74
2023-08-12T07:13:06.379Z,22.81
2023-08-12T07:15:37.009Z,22.87
2023-08-12T07:18:08.904Z,22.92
2023-08-12T07:20:39.944Z,23.00
2023-08-12T07:23:10.935Z,23.02
2023-08-12T07:25:42.062Z,23.02
2023-08-12T07:28:12.913Z,22.97
2023-08-12T07:30:43.791Z,22.93
2023-08-12T07:33:14.827Z,22.94
2023-08-12T07:35:45.745Z,22.94
2023-08-12T07:38:16.679Z,22.95
2023-08-12T07:40:47.879Z,22.98
2023-08-12T07:43:18.996Z,23.04
2023-08-12T07:46:07.609Z,23.12
2023-08-12T07:48:40.088Z,23.24
2023-08-12T07:51:10.796Z,23.34
2023-08-12T07:53:41.620Z,23.40
2023-08-12T07:56:12.283Z,23.38
2023-08-12T07:58:43.680Z,23.34
2023-08-12T08:01:14.932Z,23.32
2023-08-12T08:03:46.059Z,23.31
2023-08-12T08:06:16.782Z,23.27
2023-08-12T08:08:47.345Z,23.24
2023-08-12T08:11:18.573Z,23.21
2023-08-12T08:13:49.790Z,23.19
2023-08-12T08:16:20.754Z,23.18
2023-08-12T08:18:51.981Z,23.21
2023-08-12T08:21:22.758Z,23.27
2023-08-12T08:23:53.535Z,23.34
2023-08-12T08:26:24.389Z,23.40
2023-08-12T08:28:55.245Z,23.49
2023-08-12T08:31:26.244Z,23.54
2023-08-12T08:33:57.268Z,23.54
2023-08-12T08:36:28.000Z,23.52
2023-08-12T08:38:58.677Z,23.52
2023-08-12T08:41:32.511Z,23.52
2023-08-12T08:44:09.255Z,23.54
2023-08-12T08:46:40.783Z,23.55
2023-08-12T08:49:13.034Z,23.56
2023-08-12T08:51:45.293Z,23.61
2023-08-12T08:54:17.467Z,23.60
2023-08-12T08:56:58.277Z,23.57
2023-08-12T08:59:34.733Z,23.58
2023-08-12T09:02:06.911Z,23.56
2023-08-12T09:04:38.369Z,23.53
2023-08-12T09:07:10.054Z,23.49
2023-08-12T09:09:43.991Z,23.47
2023-08-12T09:12:16.438Z,23.47
2023-08-12T09:14:47.576Z,23.54
2023-08-12T09:17:18.249Z,23.63
2023-08-12T09:19:49.156Z,23.71
2023-08-12T09:22:21.658Z,23.74
2023-08-12T09:24:59.951Z,23.73
2023-08-12T09:27:32.537Z,23.67
2023-08-12T09:30:06.922Z,23.63
2023-08-12T09:32:39.910Z,23.56
2023-08-12T09:35:19.599Z,23.47
2023-08-12T09:37:51.622Z,23.38
2023-08-12T09:40:22.556Z,23.33
2023-08-12T09:42:54.024Z,23.30
2023-08-12T09:45:27.209Z,23.31
2023-08-12T09:47:58.651Z,23.29
2023-08-12T09:50:29.933Z,23.23
2023-08-12T09:53:00.513Z,23.18
2023-08-12T09:55:33.856Z,23.18
2023-08-12T09:58:08.683Z,23.23
2023-08-12T10:00:42.573Z,23.40
2023-08-12T10:03:15.583Z,23.66
2023-08-12T10:05:47.427Z,23.93
2023-08-12T10:08:20.312Z,24.25
2023-08-12T10:10:59.524Z,24.62
2023-08-12T10:13:39.425Z,25.09
2023-08-12T10:16:10.751Z,25.66
2023-08-12T10:18:42.245Z,26.12
2023-08-12T10:21:14.860Z,26.53
2023-08-12T10:23:47.836Z,26.91
2023-08-12T10:26:19.506Z,27.24
2023-08-12T10:28:53.021Z,27.57
2023-08-12T10:31:25.024Z,27.93
2023-08-12T10:33:56.054Z,28.23
2023-08-12T10:36:28.112Z,28.55
2023-08-12T10:39:00.037Z,28.68
2023-08-12T10:41:31.661Z,28.70
2023-08-12T10:44:07.364Z,28.68
2023-08-12T10:46:39.284Z,28.54
2023-08-12T10:49:11.248Z,28.30
2023-08-12T10:51:47.956Z,28.01
2023-08-12T10:54:27.984Z,27.70
2023-08-12T10:57:15.853Z,27.49
2023-08-12T11:00:00.051Z,27.53
2023-08-12T11:02:34.979Z,27.75
2023-08-12T11:05:10.168Z,27.98
2023-08-12T11:07:44.204Z,28.18
2023-08-12T11:10:17.602Z,28.45
2023-08-12T11:12:56.216Z,28.76
2023-08-12T11:15:35.223Z,29.05
2023-08-12T11:18:09.045Z,29.33
2023-08-12T11:20:40.252Z,29.41
2023-08-12T11:23:11.911Z,29.43
2023-08-12T11:25:45.221Z,29.46
2023-08-12T11:28:15.979Z,29.48
2023-08-12T11:30:46.934Z,29.57
2023-08-12T11:33:21.195Z,29.84
2023-08-12T11:35:52.397Z,30.20
2023-08-12T11:38:23.134Z,30.46
2023-08-12T11:40:53.893Z,30.57
2023-08-12T11:43:26.389Z,30.59
2023-08-12T11:45:58.720Z,30.53
2023-08-12T11:48:30.840Z,30.54
2023-08-12T11:51:01.779Z,30.62
2023-08-12T11:53:32.790Z,30.64
2023-08-12T11:56:04.473Z,30.62
2023-08-12T11:58:51.652Z,30.59
2023-08-12T12:01:24.698Z,30.50
2023-08-12T12:03:56.194Z,30.46
2023-08-12T12:06:35.047Z,30.49
2023-08-12T12:09:10.883Z,30.61
2023-08-12T12:11:42.751Z,30.55
2023-08-12T12:14:14.099Z,30.31
2023-08-12T12:16:46.392Z,30.25
2023-08-12T12:19:21.818Z,30.20
2023-08-12T12:21:55.070Z,30.16
2023-08-12T12:24:30.892Z,30.27
2023-08-12T12:27:02.237Z,30.32
2023-08-12T12:29:33.275Z,30.42
2023-08-12T12:32:04.120Z,30.43
2023-08-12T12:34:34.822Z,30.34
2023-08-12T12:37:05.773Z,30.29
2023-08-12T12:39:37.061Z,30.27
2023-08-12T12:42:07.822Z,30.26
2023-08-12T12:44:38.785Z,30.32
2023-08-12T12:47:11.965Z,30.39
2023-08-12T12:49:44.077Z,30.48
2023-08-12T12:52:15.125Z,30.56
2023-08-12T12:54:45.970Z,30.60
2023-08-12T12:57:17.002Z,30.71
2023-08-12T12:59:47.737Z,30.83
2023-08-12T13:02:18.770Z,30.95
2023-08-12T13:04:51.196Z,30.86
2023-08-12T13:07:22.036Z,30.69
2023-08-12T13:09:53.209Z,30.52
2023-08-12T13:12:24.067Z,30.39
2023-08-12T13:14:54.766Z,30.38
2023-08-12T13:17:27.059Z,30.47
2023-08-12T13:19:57.657Z,30.60
2023-08-12T13:22:28.269Z,30.83
2023-08-12T13:24:58.996Z,31.12
2023-08-12T13:27:30.481Z,31.44
2023-08-12T13:30:01.376Z,31.64
2023-08-12T13:32:32.154Z,31.74
2023-08-12T13:35:03.022Z,31.60
2023-08-12T13:37:34.778Z,31.39
2023-08-12T13:40:06.322Z,31.18
2023-08-12T13:42:37.005Z,30.94
2023-08-12T13:45:08.905Z,30.61
2023-08-12T13:47:39.308Z,30.23
2023-08-12T13:50:11.833Z,29.85
2023-08-12T13:52:42.847Z,29.52
2023-08-12T13:55:14.022Z,29.06
2023-08-12T13:57:45.124Z,28.33
2023-08-12T14:00:16.740Z,27.63
2023-08-12T14:02:49.566Z,27.39
2023-08-12T14:05:21.044Z,27.39
2023-08-12T14:07:51.619Z,27.59
2023-08-12T14:10:22.497Z,27.90
2023-08-12T14:12:54.038Z,28.04
2023-08-12T14:15:25.472Z,28.05
2023-08-12T14:17:56.787Z,28.06
2023-08-12T14:20:27.525Z,28.07
2023-08-12T14:22:58.177Z,28.14
2023-08-12T14:25:28.850Z,28.17
2023-08-12T14:27:59.505Z,28.15
2023-08-12T14:30:30.286Z,28.18
2023-08-12T14:33:01.113Z,28.23
2023-08-12T14:35:31.908Z,28.28
2023-08-12T14:38:03.131Z,28.30
2023-08-12T14:40:35.388Z,28.28
2023-08-12T14:43:06.173Z,28.32
2023-08-12T14:45:36.859Z,28.35
2023-08-12T14:48:08.714Z,28.41
2023-08-12T14:50:40.796Z,28.54
2023-08-12T14:53:11.880Z,28.67
2023-08-12T14:55:42.685Z,28.84
2023-08-12T14:58:13.258Z,29.00
2023-08-12T15:00:44.538Z,29.23
2023-08-12T15:03:15.766Z,29.46
2023-08-12T15:05:46.819Z,29.60
2023-08-12T15:08:18.093Z,29.76
2023-08-12T15:10:48.755Z,29.92
2023-08-12T15:13:19.356Z,29.97
2023-08-12T15:15:51.520Z,29.99
2023-08-12T15:18:22.305Z,29.90
2023-08-12T15:20:53.611Z,29.81
2023-08-12T15:23:24.363Z,29.85
2023-08-12T15:25:55.400Z,29.80
2023-08-12T15:28:26.108Z,29.64
2023-08-12T15:30:57.026Z,29.54
2023-08-12T15:33:27.960Z,29.47
2023-08-12T15:35:58.716Z,29.32
2023-08-12T15:38:29.775Z,29.15
2023-08-12T15:41:00.697Z,28.90
2023-08-12T15:43:31.247Z,28.64
2023-08-12T15:46:02.029Z,28.45
2023-08-12T15:48:32.778Z,28.26
2023-08-12T15:51:04.115Z,28.15
2023-08-12T15:53:35.478Z,28.21
2023-08-12T15:56:06.378Z,28.33
2023-08-12T15:58:37.879Z,28.39
2023-08-12T16:01:09.303Z,28.44
2023-08-12T16:03:40.388Z,28.38
2023-08-12T16:06:11.416Z,28.29
2023-08-12T16:08:42.127Z,28.18
2023-08-12T16:11:13.010Z,27.96
2023-08-12T16:13:43.676Z,27.66
2023-08-12T16:16:14.717Z,27.33
2023-08-12T16:18:45.607Z,26.97
2023-08-12T16:21:17.075Z,26.64
2023-08-12T16:23:47.835Z,26.33
2023-08-12T16:26:20.827Z,25.97
2023-08-12T16:28:53.206Z,25.63
2023-08-12T16:31:24.570Z,25.27
2023-08-12T16:34:01.677Z,24.95
2023-08-12T16:36:30.758Z,24.73
2023-08-12T16:39:01.722Z,24.58
2023-08-12T16:41:33.009Z,24.48
2023-08-12T16:44:03.995Z,24.48
2023-08-12T16:46:35.228Z,24.52
2023-08-12T16:49:07.037Z,24.53
2023-08-12T16:51:37.711Z,24.52
2023-08-12T16:54:09.934Z,24.50
2023-08-12T16:56:40.707Z,24.48
2023-08-12T16:59:11.473Z,24.42
2023-08-12T17:01:42.173Z,24.33
2023-08-12T17:04:13.299Z,24.28
2023-08-12T17:06:44.178Z,24.28
2023-08-12T17:09:17.118Z,24.36
2023-08-12T17:11:48.457Z,24.53
2023-08-12T17:14:20.441Z,24.79
2023-08-12T17:16:51.984Z,25.16
2023-08-12T17:19:22.789Z,25.51
2023-08-12T17:21:53.454Z,25.80
2023-08-12T17:24:24.488Z,25.74
2023-08-12T17:26:55.168Z,25.75
2023-08-12T17:29:26.403Z,26.21
2023-08-12T17:31:58.304Z,26.26
2023-08-12T17:34:29.076Z,26.12
2023-08-12T17:36:59.661Z,25.96
2023-08-12T17:39:30.904Z,25.74
2023-08-12T17:42:01.703Z,25.49
2023-08-12T17:44:33.138Z,25.28
2023-08-12T17:47:03.795Z,25.11
2023-08-12T17:49:35.125Z,24.96
2023-08-12T17:52:08.758Z,24.83
2023-08-12T17:54:41.995Z,24.67
2023-08-12T17:57:12.741Z,24.53
2023-08-12T17:59:43.382Z,24.40
2023-08-12T18:02:14.313Z,24.29
2023-08-12T18:04:45.545Z,24.19
2023-08-12T18:07:16.393Z,24.08
2023-08-12T18:09:47.388Z,24.01
2023-08-12T18:12:18.750Z,23.95
2023-08-12T18:14:49.685Z,23.88
2023-08-12T18:17:20.998Z,23.82
2023-08-12T18:19:51.905Z,23.73
2023-08-12T18:22:23.229Z,23.65
2023-08-12T18:24:54.216Z,23.55
2023-08-12T18:27:25.386Z,23.46
2023-08-12T18:29:57.531Z,23.38
2023-08-12T18:32:29.543Z,23.28
2023-08-12T18:35:00.606Z,23.15
2023-08-12T18:37:31.315Z,23.07
2023-08-12T18:40:01.840Z,22.98
2023-08-12T18:42:33.158Z,22.91
2023-08-12T18:45:04.669Z,22.86
2023-08-12T18:47:35.798Z,22.73
2023-08-12T18:50:07.446Z,22.39
2023-08-12T18:52:38.376Z,21.94
2023-08-12T18:55:11.342Z,21.54
2023-08-12T18:57:41.972Z,21.23
2023-08-12T19:00:16.333Z,20.99
2023-08-12T19:02:47.369Z,20.81
2023-08-12T19:05:18.559Z,20.69
2023-08-12T19:07:49.455Z,20.61
2023-08-12T19:10:20.863Z,20.57
2023-08-12T19:12:52.297Z,20.57
2023-08-12T19:15:23.654Z,20.57
2023-08-12T19:17:54.895Z,20.58
2023-08-12T19:20:25.760Z,20.60
2023-08-12T19:22:56.804Z,20.59
2023-08-12T19:25:27.909Z,20.58
2023-08-12T19:27:59.108Z,20.57
2023-08-12T19:30:29.754Z,20.55
2023-08-12T19:33:00.529Z,20.51
2023-08-12T19:35:31.356Z,20.45
2023-08-12T19:38:02.182Z,20.37
2023-08-12T19:40:32.819Z,20.30
2023-08-12T19:43:03.917Z,20.23
2023-08-12T19:45:34.757Z,20.17
2023-08-12T19:48:06.278Z,20.11
2023-08-12T19:50:37.827Z,20.02
2023-08-12T19:53:08.868Z,19.93
2023-08-12T19:55:39.858Z,19.87
2023-08-12T19:58:10.644Z,19.83
2023-08-12T20:00:42.759Z,19.80
2023-08-12T20:03:13.531Z,19.77
2023-08-12T20:05:44.992Z,19.75
2023-08-12T20:08:15.848Z,19.72
2023-08-12T20:10:46.402Z,19.71
2023-08-12T20:13:17.180Z,19.70
2023-08-12T20:15:52.548Z,19.69
2023-08-12T20:18:23.271Z,19.70
2023-08-12T20:20:55.236Z,19.70
2023-08-12T20:23:25.841Z,19.69
2023-08-12T20:25:56.426Z,19.67
2023-08-12T20:28:27.195Z,19.64
2023-08-12T20:30:57.796Z,19.59
2023-08-12T20:33:28.557Z,19.55
2023-08-12T20:35:59.766Z,19.53
2023-08-12T20:38:30.593Z,19.49
2023-08-12T20:41:02.450Z,19.45
2023-08-12T20:43:33.443Z,19.42
2023-08-12T20:46:06.222Z,19.42
2023-08-12T20:48:36.925Z,19.42
2023-08-12T20:51:08.042Z,19.42
2023-08-12T20:53:39.115Z,19.40
2023-08-12T20:56:09.934Z,19.36
2023-08-12T20:58:40.578Z,19.31
2023-08-12T21:01:11.209Z,19.25
2023-08-12T21:03:41.973Z,19.18
2023-08-12T21:06:13.062Z,19.11
2023-08-12T21:08:44.052Z,19.07
2023-08-12T21:11:14.645Z,19.04
2023-08-12T21:13:45.760Z,19.02
2023-08-12T21:16:16.340Z,19.01
2023-08-12T21:18:47.410Z,19.01
2023-08-12T21:21:18.313Z,19.01
2023-08-12T21:23:49.500Z,19.00
2023-08-12T21:26:20.105Z,19.00
2023-08-12T21:28:50.706Z,18.99
2023-08-12T21:31:21.653Z,18.97
2023-08-12T21:33:52.749Z,18.97
2023-08-12T21:36:23.391Z,18.95
2023-08-12T21:38:54.055Z,18.93
2023-08-12T21:41:25.291Z,18.91
2023-08-12T21:43:56.217Z,18.88
2023-08-12T21:46:27.442Z,18.85
2023-08-12T21:48:58.331Z,18.84
2023-08-12T21:51:29.401Z,18.80
2023-08-12T21:54:00.287Z,18.77
2023-08-12T21:56:31.080Z,18.74
2023-08-12T21:59:01.856Z,18.72
2023-08-12T22:01:33.543Z,18.70
2023-08-12T22:04:04.849Z,18.69
2023-08-12T22:06:36.034Z,18.68
2023-08-12T22:09:07.517Z,18.67
2023-08-12T22:11:38.623Z,18.66
2023-08-12T22:14:09.412Z,18.65
2023-08-12T22:16:40.057Z,18.64
2023-08-12T22:19:11.221Z,18.61
2023-08-12T22:21:41.829Z,18.59
2023-08-12T22:24:12.584Z,18.55
2023-08-12T22:26:43.264Z,18.51
2023-08-12T22:29:15.410Z,18.47
2023-08-12T22:31:46.091Z,18.43
2023-08-12T22:34:17.739Z,18.39
2023-08-12T22:36:48.440Z,18.35
2023-08-12T22:39:19.046Z,18.32
2023-08-12T22:41:49.712Z,18.28
2023-08-12T22:44:20.566Z,18.26
2023-08-12T22:46:51.466Z,18.23
2023-08-12T22:49:21.989Z,18.19
2023-08-12T22:51:52.873Z,18.13
2023-08-12T22:54:24.417Z,18.08
2023-08-12T22:56:55.154Z,18.03
2023-08-12T22:59:25.885Z,18.00
2023-08-12T23:01:56.499Z,17.98
2023-08-12T23:04:27.879Z,17.96
2023-08-12T23:06:58.658Z,17.94
2023-08-12T23:09:29.254Z,17.93
2023-08-12T23:12:00.346Z,17.91
2023-08-12T23:14:31.094Z,17.88
2023-08-12T23:17:01.683Z,17.84
2023-08-12T23:19:32.305Z,17.82
2023-08-12T23:22:03.313Z,17.80
2023-08-12T23:24:34.415Z,17.78
2023-08-12T23:27:05.892Z,17.75
2023-08-12T23:29:36.857Z,17.74
2023-08-12T23:32:09.319Z,17.72
2023-08-12T23:34:40.434Z,17.70
2023-08-12T23:37:11.501Z,17.66
2023-08-12T23:39:42.461Z,17.62
2023-08-12T23:42:13.699Z,17.59
2023-08-12T23:44:44.623Z,17.57
2023-08-12T23:47:15.454Z,17.55
2023-08-12T23:49:45.986Z,17.53
2023-08-12T23:52:16.945Z,17.52
2023-08-12T23:54:47.846Z,17.48
2023-08-12T23:57:18.665Z,17.45
2023-08-12T23:59:49.521Z,17.43
